createdAt,value
2022-09-15T00:10:00.112Z,13.6
2022-09-15T00:20:00.832Z,13.5
2022-09-15T00:30:01.645Z,13.5
2022-09-15T00:40:02.199Z,13.4
2022-09-15T00:50:02.988Z,13.3
2022-09-15T01:00:03.438Z,13.1
2022-09-15T01:10:04.297Z,12.9
2022-09-15T01:20:04.345Z,12.7
2022-09-15T01:30:04.883Z,12.6
2022-09-15T01:40:05.405Z,12.5
2022-09-15T01:50:05.927Z,12.4
2022-09-15T02:00:06.259Z,12.4
2022-09-15T02:10:07.114Z,12.4
2022-09-15T02:20:07.488Z,12.5
2022-09-15T02:30:07.845Z,12.6
2022-09-15T02:40:08.706Z,12.7
2022-09-15T02:50:08.906Z,12.8
2022-09-15T03:10:10.250Z,12.9
2022-09-15T03:20:10.688Z,13.1
2022-09-15T03:30:11.028Z,13.1
2022-09-15T03:40:11.403Z,13.2
2022-09-15T03:50:11.448Z,13.3
2022-09-15T04:00:12.066Z,13.3
2022-09-15T04:10:12.162Z,13.4
2022-09-15T04:20:12.929Z,13.3
2022-09-15T04:30:13.359Z,13.3
2022-09-15T04:40:14.125Z,13.5
2022-09-15T04:50:14.141Z,13.4
2022-09-15T05:00:15.145Z,13.4
2022-09-15T05:10:15.210Z,13.5
2022-09-15T05:20:15.660Z,13.5
2022-09-15T05:30:36.274Z,13.5
2022-09-15T05:40:16.263Z,13.7
2022-09-15T05:50:16.328Z,13.8
2022-09-15T06:00:16.359Z,14
2022-09-15T06:10:17.121Z,14.1
2022-09-15T06:20:18.018Z,14.2
2022-09-15T06:30:18.460Z,14.2
2022-09-15T06:40:19.356Z,14.2
2022-09-15T06:50:19.907Z,14.4
2022-09-15T07:00:20.258Z,14.5
2022-09-15T07:10:20.586Z,14.5
2022-09-15T07:20:21.561Z,14.6
2022-09-15T07:30:22.275Z,14.7
2022-09-15T07:40:22.681Z,14.8
2022-09-15T07:50:23.394Z,14.8
2022-09-15T08:00:23.837Z,15.1
2022-09-15T08:10:23.872Z,15.2
2022-09-15T08:20:24.428Z,15.4
2022-09-15T08:30:24.621Z,15.6
2022-09-15T08:40:25.384Z,15.8
2022-09-15T08:50:26.012Z,15.8
2022-09-15T09:00:26.960Z,16.2
2022-09-15T09:10:27.835Z,16.3
2022-09-15T09:20:28.727Z,16.8
2022-09-15T09:30:29.052Z,16.8
2022-09-15T09:40:29.731Z,17.1
2022-09-15T09:50:30.249Z,17.2
2022-09-15T10:00:31.217Z,16.8
2022-09-15T10:10:31.792Z,16.8
2022-09-15T10:20:32.317Z,16.7
2022-09-15T10:30:32.447Z,16.5
2022-09-15T10:40:32.696Z,16.3
2022-09-15T10:50:33.334Z,14.6
2022-09-15T11:00:34.087Z,14.6
2022-09-15T11:10:34.444Z,15
2022-09-15T11:20:35.267Z,15.2
2022-09-15T11:30:35.761Z,15.3
2022-09-15T11:41:20.246Z,16
2022-09-15T11:50:42.922Z,16.2
2022-09-15T12:00:43.327Z,17
2022-09-15T12:10:43.639Z,17.4
2022-09-15T12:20:44.148Z,17
2022-09-15T12:30:44.781Z,16.7
2022-09-15T12:40:45.253Z,17.1
2022-09-15T12:50:46.147Z,17.3
2022-09-15T13:01:07.073Z,17.5
2022-09-15T13:01:17.824Z,17.6
2022-09-15T13:10:52.347Z,17.8
2022-09-15T13:20:52.983Z,17.7
2022-09-15T13:30:53.799Z,17.6
2022-09-15T13:40:54.612Z,17.7
2022-09-15T13:50:55.422Z,17.6
2022-09-15T14:00:55.759Z,17.9
2022-09-15T14:10:55.955Z,17.9
2022-09-15T14:20:56.484Z,17.9
2022-09-15T14:30:57.275Z,17.8
2022-09-15T14:40:57.296Z,17.9
2022-09-15T14:50:57.678Z,17.8
2022-09-15T15:00:58.366Z,17.6
2022-09-15T15:10:59.187Z,17.6
2022-09-15T15:20:59.282Z,17.8
2022-09-15T15:31:00.149Z,17.6
2022-09-15T15:41:00.494Z,17.4
2022-09-15T15:51:00.994Z,15.4
2022-09-15T16:01:01.626Z,15.2
2022-09-15T16:21:02.634Z,15
2022-09-15T16:31:03.566Z,15.3
2022-09-15T16:41:04.100Z,15.5
2022-09-15T17:01:04.542Z,15.6
2022-09-15T17:11:05.570Z,15.4
2022-09-15T17:21:05.992Z,15.4
2022-09-15T17:31:06.940Z,15.4
2022-09-15T17:51:07.808Z,15.2
2022-09-15T18:01:08.158Z,15.2
2022-09-15T18:21:09.376Z,14.9
2022-09-15T18:31:09.790Z,14.7
2022-09-15T19:11:11.214Z,14.3
2022-09-15T21:11:17.848Z,13.9
2022-09-15T21:21:18.238Z,13.7
2022-09-15T21:31:19.168Z,13.5
2022-09-15T21:41:19.554Z,13.5
2022-09-15T21:51:24.161Z,13.5
2022-09-15T22:01:21.101Z,13.7
2022-09-15T22:11:21.266Z,13.7
2022-09-15T22:21:22.104Z,13.7
2022-09-15T22:31:22.677Z,13.9
2022-09-15T22:41:23.488Z,13.8
2022-09-15T22:51:24.055Z,13.7
2022-09-15T23:01:24.220Z,13.7
2022-09-15T23:11:24.825Z,13.6
2022-09-15T23:21:25.261Z,13.5
2022-09-15T23:31:25.888Z,13.5
2022-09-15T23:41:26.107Z,13.4
2022-09-15T23:51:26.571Z,13.4
